Idaho County, ID

3:36 PM PDT on April 01, 2015 (GMT -0700)
Idaho Cnty AP, Grangeville, I | | Change Station
CLOSE
Current Station
Airport
Location: Idaho Cnty AP, Grangeville, I,
Elevation: 3314 ft
Nearby Weather Stations

Elev 3314 ft 45.94 °N, 116.12 °W | Updated 21 minutes ago

Overcast
Overcast
43 °F
Feels Like 36 °F
N
15
Wind Variable Wind from SE
Gusts 18 mph

Today
High -- | Low -- °F
--% Chance of Precip.
Yesterday
High -- | Low -- °F
Precip. -- in
6:24 AM 7:12 PM
Waxing Gibbous, 94% visible
Pressure 30.14 in
Visibility 10.0 miles
Clouds Scattered Clouds 3400 ft
Mostly Cloudy 4400 ft
Overcast 7000 ft
Windchill 36 °F
Dew Point 32 °F
Humidity 64%
Rainfall 0.00 in
Snow Depth Not available.
UV 1 out of 12
Pollen 8.90 out of 12
Air Quality Not available.
Flu Activity Not available.
METAR KGIC 012215Z AUTO 13013G16KT 10SM SCT034 BKN044 OVC070 06/00 A3014 RMK AO1 T00621001

More Conditions Fewer Conditions

Pressure 30.14 in
Visibility 10.0 miles
Clouds Scattered Clouds 3400 ft
Mostly Cloudy 4400 ft
Overcast 7000 ft
Windchill 36 °F
Dew Point 32 °F
Humidity 64%
Rainfall 0.00 in
Snow Depth Not available.
UV 1 out of 12
Pollen 8.90 out of 12
Air Quality Not available.
Flu Activity Not available.
METAR KGIC 012215Z AUTO 13013G16KT 10SM SCT034 BKN044 OVC070 06/00 A3014 RMK AO1 T00621001

More Conditions Fewer Conditions

10-Day Weather Forecast

Almanac

Astronomy

Apr. 01, 2015 Rise Set
Actual Time
Civil Twilight
Nautical Twilight
Astronomical Twilight
Moon
Length of Visible Light
Length of Day
Tomorrow will be .
, % of the Moon is Illuminated

Today's Extremes

State Highs State Lows

Community

WunderPhotos

Upload Photos

1,810,096 photos uploaded!

WunderBlogs® & News

Nearby

Air Quality

  Air Quality AQ Index Pollutant
Not available.

Snow Depth

Station Depth Elevation

Earthquake Activity

City Distance Mag. Time & Date
Minimum magnitude displayed is 2.5.

Coastal Water Temperatures

Place Temperature

Stations

Nearby Weather Stations

Station Location Temp. Windchill Dew Point Humidity Wind Precip. Elev Updated Type